createdAt,value
2016-12-01T00:00:01.963Z,0
2016-12-01T00:01:01.988Z,0
2016-12-01T00:02:01.722Z,0
2016-12-01T00:03:02.353Z,0
2016-12-01T00:04:02.090Z,0
2016-12-01T00:05:01.807Z,0
2016-12-01T00:06:01.520Z,0
2016-12-01T00:07:02.152Z,0
2016-12-01T00:08:01.577Z,0
2016-12-01T00:09:01.910Z,0
2016-12-01T00:10:02.230Z,0
2016-12-01T00:11:02.272Z,0
2016-12-01T00:12:02.285Z,0
2016-12-01T00:13:02.310Z,0
2016-12-01T00:14:02.028Z,0
2016-12-01T00:15:01.762Z,0
2016-12-01T00:16:02.402Z,0
2016-12-01T00:17:01.830Z,0
2016-12-01T00:18:02.461Z,0
2016-12-01T00:19:02.482Z,0
2016-12-01T00:20:01.907Z,0
2016-12-01T00:21:02.843Z,0
2016-12-01T00:22:01.957Z,0
2016-12-01T00:23:02.585Z,0
2016-12-01T00:24:02.942Z,0
2016-12-01T00:25:02.652Z,0
2016-12-01T00:26:02.075Z,0
2016-12-01T00:27:02.397Z,0
2016-12-01T00:28:03.030Z,0
2016-12-01T00:29:02.138Z,0
2016-12-01T00:30:02.482Z,0
2016-12-01T00:31:03.112Z,0
2016-12-01T00:32:02.536Z,0
2016-12-01T00:33:02.548Z,0
2016-12-01T00:34:02.889Z,0
2016-12-01T00:35:02.926Z,0
2016-12-01T00:36:02.670Z,0
2016-12-01T00:37:02.365Z,0
2016-12-01T00:38:02.697Z,0
2016-12-01T00:39:03.017Z,0
2016-12-01T00:40:02.750Z,0
2016-12-01T00:41:02.783Z,0
2016-12-01T00:42:02.795Z,0
2016-12-01T00:43:02.821Z,0
2016-12-01T00:44:03.448Z,0
2016-12-01T00:45:02.570Z,0
2016-12-01T00:46:03.199Z,0
2016-12-01T00:47:02.635Z,0
2016-12-01T00:48:03.256Z,0
2016-12-01T00:49:02.674Z,0
2016-12-01T00:50:02.712Z,0
2016-12-01T00:51:03.651Z,0
2016-12-01T00:52:02.783Z,0
2016-12-01T00:53:03.691Z,0
2016-12-01T00:54:03.116Z,0
2016-12-01T00:55:02.842Z,0
2016-12-01T00:56:03.178Z,0
2016-12-01T00:57:03.186Z,0
2016-12-01T00:58:03.232Z,0
2016-12-01T00:59:03.559Z,0
2016-12-01T01:00:03.269Z,0
2016-12-01T01:01:03.306Z,0
2016-12-01T01:02:03.027Z,0
2016-12-01T01:03:03.051Z,0
2016-12-01T01:04:03.404Z,0
2016-12-01T01:05:03.722Z,0
2016-12-01T01:06:03.150Z,0
2016-12-01T01:07:03.467Z,0
2016-12-01T01:08:03.491Z,0
2016-12-01T01:09:03.195Z,0
2016-12-01T01:10:03.541Z,0
2016-12-01T01:11:03.871Z,0
2016-12-01T01:12:03.602Z,0
2016-12-01T01:13:03.613Z,0
2016-12-01T01:14:03.657Z,0
2016-12-01T01:15:03.373Z,0
2016-12-01T01:16:03.392Z,0
2016-12-01T01:17:03.726Z,0
2016-12-01T01:18:03.746Z,0
2016-12-01T01:19:03.785Z,0
2016-12-01T01:20:04.112Z,0
2016-12-01T01:21:03.553Z,0
2016-12-01T01:22:03.555Z,0
2016-12-01T01:23:03.886Z,0
2016-12-01T01:24:04.215Z,0
2016-12-01T01:25:03.944Z,0
2016-12-01T01:26:04.584Z,0
2016-12-01T01:27:04.296Z,0
2016-12-01T01:28:04.013Z,0
2016-12-01T01:29:04.082Z,0
2016-12-01T01:30:03.771Z,0
2016-12-01T01:31:04.100Z,0
2016-12-01T01:32:03.825Z,0
2016-12-01T01:33:04.450Z,0
2016-12-01T01:34:03.871Z,0
2016-12-01T01:35:03.922Z,0
2016-12-01T01:36:03.916Z,0
2016-12-01T01:37:04.554Z,0
2016-12-01T01:38:04.575Z,0
2016-12-01T01:39:04.003Z,0
2016-12-01T01:40:04.338Z,0
2016-12-01T01:41:04.364Z,0
2016-12-01T01:42:04.085Z,0
2016-12-01T01:43:04.110Z,0
2016-12-01T01:44:04.142Z,0
2016-12-01T01:45:04.163Z,0
2016-12-01T01:46:04.493Z,0
2016-12-01T01:47:04.829Z,0
2016-12-01T01:48:04.548Z,0
2016-12-01T01:49:04.883Z,0
2016-12-01T01:50:04.608Z,0
2016-12-01T01:51:04.633Z,0
2016-12-01T01:52:04.666Z,0
2016-12-01T01:53:04.677Z,0
2016-12-01T01:54:04.731Z,0
2016-12-01T01:55:05.034Z,0
2016-12-01T01:56:05.079Z,0
2016-12-01T01:57:04.785Z,0
2016-12-01T01:58:04.814Z,0
2016-12-01T01:59:05.443Z,0
2016-12-01T02:00:04.876Z,0
2016-12-01T02:01:04.890Z,0
2016-12-01T02:02:05.541Z,0
2016-12-01T02:03:05.251Z,0
2016-12-01T02:04:05.282Z,0
2016-12-01T02:05:05.612Z,0
2016-12-01T02:06:04.734Z,0
2016-12-01T02:07:04.745Z,0
2016-12-01T02:08:05.082Z,0
2016-12-01T02:09:05.711Z,0
2016-12-01T02:10:05.156Z,0
2016-12-01T02:11:05.461Z,0
2016-12-01T02:12:05.177Z,0
2016-12-01T02:13:05.222Z,0
2016-12-01T02:14:04.952Z,0
2016-12-01T02:15:05.264Z,0
2016-12-01T02:16:05.296Z,0
2016-12-01T02:17:05.329Z,0
2016-12-01T02:18:05.342Z,0
2016-12-01T02:19:05.058Z,0
2016-12-01T02:20:05.391Z,0
2016-12-01T02:21:05.728Z,0
2016-12-01T02:22:05.457Z,0
2016-12-01T02:23:05.474Z,0
2016-12-01T02:24:05.494Z,0
2016-12-01T02:25:05.216Z,0
2016-12-01T02:26:06.175Z,0
2016-12-01T02:27:05.574Z,0
2016-12-01T02:28:05.598Z,0
2016-12-01T02:29:05.331Z,0
2016-12-01T02:30:05.969Z,0
2016-12-01T02:31:05.688Z,0
2016-12-01T02:32:05.709Z,0
2016-12-01T02:33:05.742Z,0
2016-12-01T02:34:05.750Z,0
2016-12-01T02:35:05.487Z,0
2016-12-01T02:36:05.814Z,0
2016-12-01T02:37:05.844Z,0
2016-12-01T02:38:05.561Z,0
2016-12-01T02:39:05.583Z,0
2016-12-01T02:40:05.939Z,0
2016-12-01T02:41:06.252Z,0
2016-12-01T02:42:05.669Z,0
2016-12-01T02:43:06.001Z,0
2016-12-01T02:44:06.627Z,0
2016-12-01T02:45:06.364Z,0
2016-12-01T02:46:06.068Z,0
2016-12-01T02:47:06.093Z,0
2016-12-01T02:48:06.441Z,0
2016-12-01T02:49:05.854Z,0
2016-12-01T02:50:06.180Z,0
2016-12-01T02:51:05.917Z,0
2016-12-01T02:52:06.236Z,0
2016-12-01T02:53:05.958Z,0
2016-12-01T02:54:06.304Z,0
2016-12-01T02:55:06.315Z,0
2016-12-01T02:56:06.337Z,0
2016-12-01T02:57:06.669Z,0
2016-12-01T02:58:06.706Z,0
2016-12-01T02:59:06.735Z,0
2016-12-01T03:00:06.450Z,0
2016-12-01T03:01:06.465Z,0
2016-12-01T03:02:06.804Z,0
2016-12-01T03:03:06.534Z,0
2016-12-01T03:04:06.856Z,0
2016-12-01T03:05:06.568Z,0
2016-12-01T03:06:06.324Z,0
2016-12-01T03:07:06.622Z,0
2016-12-01T03:08:06.982Z,0
2016-12-01T03:09:07.271Z,0
2016-12-01T03:10:06.431Z,0
2016-12-01T03:11:06.732Z,0
2016-12-01T03:12:06.773Z,0
2016-12-01T03:13:07.389Z,0
2016-12-01T03:14:07.095Z,0
2016-12-01T03:15:07.144Z,0
2016-12-01T03:16:07.188Z,0
2016-12-01T03:17:06.873Z,0
2016-12-01T03:18:07.216Z,0
2016-12-01T03:19:07.238Z,0
2016-12-01T03:20:06.971Z,0
2016-12-01T03:21:06.984Z,0
2016-12-01T03:22:07.650Z,0
2016-12-01T03:23:06.738Z,0
2016-12-01T03:24:07.383Z,0
2016-12-01T03:25:07.397Z,0
2016-12-01T03:26:07.139Z,0
2016-12-01T03:27:07.458Z,0
2016-12-01T03:28:07.782Z,0
2016-12-01T03:29:07.203Z,0
2016-12-01T03:30:07.548Z,0
2016-12-01T03:31:07.261Z,0
2016-12-01T03:32:07.286Z,0
2016-12-01T03:33:07.922Z,0
2016-12-01T03:34:07.043Z,0
2016-12-01T03:35:07.355Z,0
2016-12-01T03:36:07.408Z,0
2016-12-01T03:37:07.407Z,0
2016-12-01T03:38:07.746Z,0
2016-12-01T03:39:07.162Z,0
2016-12-01T03:40:07.827Z,0
2016-12-01T03:41:07.507Z,0
2016-12-01T03:42:07.543Z,0
2016-12-01T03:43:07.268Z,0
2016-12-01T03:44:07.901Z,0
2016-12-01T03:45:07.934Z,0
2016-12-01T03:46:07.967Z,0
2016-12-01T03:47:07.975Z,0
2016-12-01T03:48:07.703Z,0
2016-12-01T03:49:08.040Z,0
2016-12-01T03:50:08.048Z,0
2016-12-01T03:51:08.082Z,0
2016-12-01T03:52:08.406Z,0
2016-12-01T03:53:07.839Z,0
2016-12-01T03:54:07.893Z,0
2016-12-01T03:55:08.176Z,0
2016-12-01T03:56:07.913Z,0
2016-12-01T03:57:07.628Z,0
2016-12-01T03:58:07.958Z,0
2016-12-01T03:59:08.591Z,0
2016-12-01T04:00:08.008Z,0
2016-12-01T04:01:08.036Z,0
2016-12-01T04:02:08.360Z,0
2016-12-01T04:03:08.082Z,0
2016-12-01T04:04:08.422Z,0
2016-12-01T04:05:08.443Z,0
2016-12-01T04:06:07.869Z,0
2016-12-01T04:07:08.813Z,0
2016-12-01T04:08:08.530Z,0
2016-12-01T04:09:07.937Z,0
2016-12-01T04:10:08.258Z,0
2016-12-01T04:11:08.291Z,0
2016-12-01T04:12:08.329Z,0
2016-12-01T04:13:08.644Z,0
2016-12-01T04:14:08.366Z,0
2016-12-01T04:15:09.002Z,0
2016-12-01T04:16:08.427Z,0
2016-12-01T04:17:08.139Z,0
2016-12-01T04:18:08.787Z,0
2016-12-01T04:19:08.507Z,0
2016-12-01T04:20:08.832Z,0
2016-12-01T04:21:08.861Z,0
2016-12-01T04:22:09.185Z,0
2016-12-01T04:23:08.894Z,0
2016-12-01T04:24:08.327Z,0
2016-12-01T04:25:08.658Z,0
2016-12-01T04:26:08.985Z,0
2016-12-01T04:27:08.408Z,0
2016-12-01T04:28:09.040Z,0
2016-12-01T04:29:08.751Z,0
2016-12-01T04:30:09.077Z,0
2016-12-01T04:31:09.418Z,0
2016-12-01T04:32:08.847Z,0
2016-12-01T04:33:09.164Z,0
2016-12-01T04:34:09.492Z,0
2016-12-01T04:35:09.220Z,0
2016-12-01T04:36:09.553Z,0
2016-12-01T04:37:08.951Z,0
2016-12-01T04:38:09.005Z,0
2016-12-01T04:39:09.006Z,0
2016-12-01T04:40:09.343Z,0
2016-12-01T04:41:09.380Z,0
2016-12-01T04:42:09.408Z,0
2016-12-01T04:43:08.824Z,0
2016-12-01T04:44:08.825Z,0
2016-12-01T04:45:09.174Z,0
2016-12-01T04:46:09.226Z,0
2016-12-01T04:47:09.527Z,0
2016-12-01T04:48:08.948Z,0
2016-12-01T04:49:08.965Z,0
2016-12-01T04:50:09.609Z,0
2016-12-01T04:51:09.617Z,0
2016-12-01T04:52:09.355Z,0
2016-12-01T04:53:09.383Z,0
2016-12-01T04:54:09.695Z,0
2016-12-01T04:55:09.443Z,0
2016-12-01T04:56:09.755Z,0
2016-12-01T04:57:09.781Z,0
2016-12-01T04:58:09.822Z,0
2016-12-01T04:59:09.531Z,0
2016-12-01T05:00:09.559Z,0
2016-12-01T05:01:10.219Z,0
2016-12-01T05:02:09.920Z,0
2016-12-01T05:03:09.936Z,0
2016-12-01T05:04:10.274Z,0
2016-12-01T05:05:09.386Z,0
2016-12-01T05:06:10.014Z,0
2016-12-01T05:07:09.435Z,0
2016-12-01T05:08:10.364Z,0
2016-12-01T05:09:09.776Z,0
2016-12-01T05:10:10.412Z,0
2016-12-01T05:11:09.842Z,0
2016-12-01T05:12:09.862Z,0
2016-12-01T05:13:10.195Z,0
2016-12-01T05:14:10.232Z,0
2016-12-01T05:15:10.248Z,0
2016-12-01T05:16:09.982Z,0
2016-12-01T05:17:09.990Z,0
2016-12-01T05:18:10.058Z,0
2016-12-01T05:19:10.351Z,0
2016-12-01T05:20:10.383Z,0
2016-12-01T05:21:10.400Z,0
2016-12-01T05:22:10.124Z,0
2016-12-01T05:23:09.834Z,0
2016-12-01T05:24:10.174Z,0
2016-12-01T05:25:10.191Z,0
2016-12-01T05:26:10.572Z,0
2016-12-01T05:27:10.252Z,0
2016-12-01T05:28:10.585Z,0
2016-12-01T05:29:09.994Z,0
2016-12-01T05:30:10.621Z,0
2016-12-01T05:31:10.656Z,0
2016-12-01T05:32:10.380Z,0
2016-12-01T05:33:10.702Z,0
2016-12-01T05:34:10.439Z,0
2016-12-01T05:35:10.747Z,0
2016-12-01T05:36:10.774Z,0
2016-12-01T05:37:10.203Z,0
2016-12-01T05:38:10.524Z,0
2016-12-01T05:39:10.853Z,0
2016-12-01T05:40:10.887Z,0
2016-12-01T05:41:10.917Z,0
2016-12-01T05:42:10.942Z,0
2016-12-01T05:43:10.678Z,0
2016-12-01T05:44:10.711Z,0
2016-12-01T05:45:11.327Z,0
2016-12-01T05:46:10.748Z,0
2016-12-01T05:47:11.065Z,0
2016-12-01T05:48:10.791Z,0
2016-12-01T05:49:11.415Z,0
2016-12-01T05:50:11.158Z,0
2016-12-01T05:51:10.887Z,0
2016-12-01T05:52:10.888Z,0
2016-12-01T05:53:10.921Z,0
2016-12-01T05:54:10.966Z,0
2016-12-01T05:55:11.271Z,0
2016-12-01T05:56:11.301Z,0
2016-12-01T05:57:11.052Z,0
2016-12-01T05:58:10.738Z,0
2016-12-01T05:59:11.075Z,0
2016-12-01T06:00:11.101Z,0
2016-12-01T06:01:11.730Z,0
2016-12-01T06:02:11.163Z,0
2016-12-01T06:03:11.171Z,0
2016-12-01T06:04:11.195Z,0
2016-12-01T06:05:11.537Z,0
2016-12-01T06:06:10.945Z,0
2016-12-01T06:07:11.270Z,0
2016-12-01T06:08:11.299Z,0
2016-12-01T06:09:11.634Z,0
2016-12-01T06:10:11.661Z,0
2016-12-01T06:11:11.408Z,0
2016-12-01T06:12:11.409Z,0
2016-12-01T06:13:11.742Z,0
2016-12-01T06:14:11.167Z,0
2016-12-01T06:15:11.487Z,0
2016-12-01T06:16:11.528Z,0
2016-12-01T06:17:12.145Z,0
2016-12-01T06:18:11.557Z,0
2016-12-01T06:19:11.282Z,0
2016-12-01T06:20:11.318Z,0
2016-12-01T06:21:11.675Z,0
2016-12-01T06:22:11.673Z,0
2016-12-01T06:23:11.998Z,0
2016-12-01T06:24:11.728Z,0
2016-12-01T06:25:11.438Z,0
2016-12-01T06:26:11.772Z,0
2016-12-01T06:27:12.403Z,0
2016-12-01T06:28:11.528Z,0
2016-12-01T06:29:12.458Z,0
2016-12-01T06:30:12.185Z,0
2016-12-01T06:31:12.519Z,0
2016-12-01T06:32:12.231Z,0
2016-12-01T06:33:12.247Z,0
2016-12-01T06:34:11.979Z,0
2016-12-01T06:35:11.701Z,0
2016-12-01T06:36:11.737Z,0
2016-12-01T06:37:12.374Z,0
2016-12-01T06:38:12.398Z,0
2016-12-01T06:39:12.404Z,0
2016-12-01T06:40:12.452Z,0
2016-12-01T06:41:12.160Z,0
2016-12-01T06:42:12.184Z,4
2016-12-01T06:43:12.222Z,4
2016-12-01T06:44:12.263Z,4
2016-12-01T06:45:12.579Z,4
2016-12-01T06:46:12.301Z,4
2016-12-01T06:47:12.609Z,4
2016-12-01T06:48:12.373Z,8
2016-12-01T06:49:12.366Z,8
2016-12-01T06:50:12.088Z,8
2016-12-01T06:51:12.720Z,8
2016-12-01T06:52:12.756Z,12
2016-12-01T06:53:12.794Z,12
2016-12-01T06:54:12.802Z,16
2016-12-01T06:55:12.810Z,16
2016-12-01T06:56:12.259Z,20
2016-12-01T06:57:12.304Z,20
2016-12-01T06:58:12.604Z,24
2016-12-01T06:59:12.933Z,28
2016-12-01T07:00:12.369Z,32
2016-12-01T07:01:13.303Z,32
2016-12-01T07:02:12.703Z,40
2016-12-01T07:03:13.344Z,40
2016-12-01T07:04:13.056Z,44
2016-12-01T07:05:13.098Z,48
2016-12-01T07:06:12.818Z,56
2016-12-01T07:07:12.835Z,60
2016-12-01T07:08:13.463Z,64
2016-12-01T07:09:13.488Z,68
2016-12-01T07:10:13.232Z,72
2016-12-01T07:11:13.235Z,76
2016-12-01T07:12:13.279Z,84
2016-12-01T07:13:13.297Z,92
2016-12-01T07:14:13.037Z,100
2016-12-01T07:15:13.041Z,100
2016-12-01T07:16:13.373Z,108
2016-12-01T07:17:13.105Z,120
2016-12-01T07:18:12.834Z,124
2016-12-01T07:19:13.467Z,132
2016-12-01T07:20:13.801Z,136
2016-12-01T07:21:12.909Z,144
2016-12-01T07:22:13.565Z,152
2016-12-01T07:23:13.570Z,164
2016-12-01T07:24:13.587Z,172
2016-12-01T07:25:13.603Z,180
2016-12-01T07:26:13.636Z,188
2016-12-01T07:27:13.657Z,200
2016-12-01T07:28:13.692Z,212
2016-12-01T07:29:13.450Z,228
2016-12-01T07:30:13.737Z,236
2016-12-01T07:31:13.775Z,244
2016-12-01T07:32:13.788Z,252
2016-12-01T07:33:13.217Z,264
2016-12-01T07:34:13.850Z,276
2016-12-01T07:35:13.266Z,284
2016-12-01T07:36:14.231Z,296
2016-12-01T07:37:13.628Z,308
2016-12-01T07:38:13.662Z,324
2016-12-01T07:39:13.965Z,340
2016-12-01T07:40:13.993Z,352
2016-12-01T07:41:14.022Z,364
2016-12-01T07:42:13.776Z,384
2016-12-01T07:43:13.772Z,396
2016-12-01T07:44:14.433Z,420
2016-12-01T07:45:14.429Z,440
2016-12-01T07:46:13.866Z,460
2016-12-01T07:47:14.178Z,480
2016-12-01T07:48:14.216Z,500
2016-12-01T07:49:14.245Z,512
2016-12-01T07:50:14.580Z,512
2016-12-01T07:51:13.986Z,520
2016-12-01T07:52:14.638Z,536
2016-12-01T07:53:14.031Z,548
2016-12-01T07:54:14.364Z,556
2016-12-01T07:55:14.386Z,564
2016-12-01T07:56:14.421Z,572
2016-12-01T07:57:14.153Z,576
2016-12-01T07:58:14.470Z,584
2016-12-01T07:59:14.515Z,608
2016-12-01T08:00:14.581Z,616
2016-12-01T08:01:14.257Z,628
2016-12-01T08:02:14.585Z,644
2016-12-01T08:03:14.594Z,656
2016-12-01T08:04:14.639Z,656
2016-12-01T08:05:14.363Z,664
2016-12-01T08:06:14.988Z,664
2016-12-01T08:07:14.708Z,664
2016-12-01T08:08:14.744Z,692
2016-12-01T08:09:15.074Z,704
2016-12-01T08:10:14.781Z,720
2016-12-01T08:11:14.812Z,732
2016-12-01T08:12:14.840Z,744
2016-12-01T08:13:14.566Z,760
2016-12-01T08:14:14.897Z,780
2016-12-01T08:15:14.609Z,840
2016-12-01T08:16:15.236Z,896
2016-12-01T08:17:14.963Z,928
2016-12-01T08:18:15.015Z,1000
2016-12-01T08:19:15.328Z,1084
2016-12-01T08:20:15.057Z,1104
2016-12-01T08:21:15.081Z,1072
2016-12-01T08:22:15.118Z,1096
2016-12-01T08:23:15.130Z,1128
2016-12-01T08:24:15.168Z,1108
2016-12-01T08:25:15.180Z,1132
2016-12-01T08:26:15.213Z,1096
2016-12-01T08:27:14.931Z,1048
2016-12-01T08:28:15.558Z,1068
2016-12-01T08:29:15.578Z,1132
2016-12-01T08:30:15.312Z,1284
2016-12-01T08:31:15.340Z,1312
2016-12-01T08:32:15.683Z,1296
2016-12-01T08:33:15.082Z,1288
2016-12-01T08:34:15.413Z,1256
2016-12-01T08:35:15.747Z,1264
2016-12-01T08:36:15.767Z,1300
2016-12-01T08:37:16.099Z,1344
2016-12-01T08:38:15.535Z,1232
2016-12-01T08:39:15.549Z,1192
2016-12-01T08:40:15.266Z,1120
2016-12-01T08:41:15.306Z,1236
2016-12-01T08:42:15.318Z,1304
2016-12-01T08:43:15.351Z,1284
2016-12-01T08:44:15.364Z,1120
2016-12-01T08:45:16.017Z,1228
2016-12-01T08:46:16.041Z,1168
2016-12-01T08:47:15.758Z,1288
2016-12-01T08:48:16.083Z,1412
2016-12-01T08:49:15.799Z,1440
2016-12-01T08:50:16.130Z,1428
2016-12-01T08:51:16.156Z,1356
2016-12-01T08:52:15.589Z,1320
2016-12-01T08:53:15.294Z,1336
2016-12-01T08:54:15.635Z,1336
2016-12-01T08:55:15.955Z,1352
2016-12-01T08:56:15.700Z,1296
2016-12-01T08:57:15.401Z,1272
2016-12-01T08:58:15.431Z,1324
2016-12-01T08:59:16.096Z,1400
2016-12-01T09:00:16.415Z,1372
2016-12-01T09:01:16.428Z,1300
2016-12-01T09:02:16.150Z,1332
2016-12-01T09:03:16.176Z,1360
2016-12-01T09:04:16.202Z,1336
2016-12-01T09:05:16.526Z,1364
2016-12-01T09:06:16.259Z,1372
2016-12-01T09:07:16.572Z,1368
2016-12-01T09:08:16.299Z,1372
2016-12-01T09:09:16.012Z,1432
2016-12-01T09:10:16.137Z,1416
2016-12-01T09:11:16.063Z,1424
2016-12-01T09:12:16.092Z,1396
2016-12-01T09:13:16.116Z,1440
2016-12-01T09:14:16.760Z,1396
2016-12-01T09:15:16.782Z,1404
2016-12-01T09:16:16.197Z,1404
2016-12-01T09:17:16.226Z,1376
2016-12-01T09:18:16.555Z,1364
2016-12-01T09:19:16.570Z,1368
2016-12-01T09:20:16.917Z,1364
2016-12-01T09:21:16.029Z,1340
2016-12-01T09:22:16.074Z,1336
2016-12-01T09:23:16.678Z,1328
2016-12-01T09:24:16.699Z,1308
2016-12-01T09:25:16.428Z,1336
2016-12-01T09:26:16.461Z,1332
2016-12-01T09:27:16.793Z,1340
2016-12-01T09:28:16.502Z,1344
2016-12-01T09:29:16.531Z,1372
2016-12-01T09:30:16.556Z,1396
2016-12-01T09:31:16.889Z,1460
2016-12-01T09:32:16.934Z,1508
2016-12-01T09:33:16.951Z,1532
2016-12-01T09:34:16.970Z,1600
2016-12-01T09:35:16.687Z,1636
2016-12-01T09:36:16.432Z,1600
2016-12-01T09:37:17.376Z,1616
2016-12-01T09:38:17.079Z,1632
2016-12-01T09:39:17.394Z,1600
2016-12-01T09:40:17.115Z,1592
2016-12-01T09:41:17.447Z,1516
2016-12-01T09:42:17.172Z,1436
2016-12-01T09:43:16.895Z,1436
2016-12-01T09:44:17.230Z,1388
2016-12-01T09:45:16.643Z,1376
2016-12-01T09:46:17.311Z,1332
2016-12-01T09:47:17.596Z,1312
2016-12-01T09:48:17.022Z,1396
2016-12-01T09:49:17.366Z,1384
2016-12-01T09:50:17.079Z,1404
2016-12-01T09:51:16.795Z,1432
2016-12-01T09:52:17.743Z,1500
2016-12-01T09:53:17.769Z,1552
2016-12-01T09:54:17.489Z,1496
2016-12-01T09:55:17.514Z,1476
2016-12-01T09:56:17.839Z,1496
2016-12-01T09:57:17.559Z,1556
2016-12-01T09:58:17.284Z,1620
2016-12-01T09:59:17.629Z,1980
2016-12-01T10:00:17.645Z,2808
2016-12-01T10:01:17.364Z,2988
2016-12-01T10:02:17.398Z,2800
2016-12-01T10:03:17.720Z,2276
2016-12-01T10:04:18.053Z,2904
2016-12-01T10:05:17.775Z,3380
2016-12-01T10:06:17.809Z,3588
2016-12-01T10:07:17.227Z,2940
2016-12-01T10:08:17.244Z,2636
2016-12-01T10:09:17.579Z,2288
2016-12-01T10:10:17.597Z,2212
2016-12-01T10:11:18.242Z,2076
2016-12-01T10:12:18.267Z,1984
2016-12-01T10:13:17.984Z,2140
2016-12-01T10:14:17.409Z,2188
2016-12-01T10:15:17.428Z,2024
2016-12-01T10:16:18.070Z,1892
2016-12-01T10:17:17.495Z,2220
2016-12-01T10:18:17.516Z,2084
2016-12-01T10:19:17.852Z,1796
2016-12-01T10:20:17.864Z,1692
2016-12-01T10:21:17.889Z,1992
2016-12-01T10:22:18.217Z,2048
2016-12-01T10:23:17.949Z,2188
2016-12-01T10:24:17.967Z,2052
2016-12-01T10:25:18.036Z,2084
2016-12-01T10:26:18.648Z,2148
2016-12-01T10:27:18.042Z,2152
2016-12-01T10:28:18.074Z,1936
2016-12-01T10:29:18.103Z,1920
2016-12-01T10:30:17.819Z,1936
2016-12-01T10:31:18.460Z,1948
2016-12-01T10:32:18.185Z,1828
2016-12-01T10:33:18.504Z,1888
2016-12-01T10:34:18.224Z,1860
2016-12-01T10:35:18.560Z,1808
2016-12-01T10:36:18.588Z,1760
2016-12-01T10:37:18.308Z,1844
2016-12-01T10:38:18.032Z,1740
2016-12-01T10:39:18.370Z,1552
2016-12-01T10:40:18.081Z,1576
2016-12-01T10:41:18.111Z,1640
2016-12-01T10:42:18.455Z,1568
2016-12-01T10:43:19.084Z,1564
2016-12-01T10:44:18.806Z,1524
2016-12-01T10:45:18.836Z,1436
2016-12-01T10:46:18.857Z,1536
2016-12-01T10:47:18.268Z,1564
2016-12-01T10:48:18.287Z,1564
2016-12-01T10:49:18.317Z,1396
2016-12-01T10:50:18.657Z,1456
2016-12-01T10:51:18.976Z,1644
2016-12-01T10:52:18.416Z,1568
2016-12-01T10:53:18.433Z,1564
2016-12-01T10:54:18.440Z,1472
2016-12-01T10:55:18.474Z,1380
2016-12-01T10:56:18.814Z,1488
2016-12-01T10:57:18.530Z,1500
2016-12-01T10:58:19.176Z,1556
2016-12-01T10:59:18.892Z,1644
2016-12-01T11:00:18.904Z,1588
2016-12-01T11:01:19.241Z,1552
2016-12-01T11:02:19.266Z,1404
2016-12-01T11:03:18.980Z,1324
2016-12-01T11:04:19.025Z,1264
2016-12-01T11:05:19.644Z,1252
2016-12-01T11:06:18.777Z,1276
2016-12-01T11:07:18.793Z,1292
2016-12-01T11:08:19.123Z,1296
2016-12-01T11:09:19.147Z,1304
2016-12-01T11:10:18.876Z,1388
2016-12-01T11:11:18.900Z,1340
2016-12-01T11:12:19.233Z,1216
2016-12-01T11:13:19.554Z,1156
2016-12-01T11:14:19.895Z,1172
2016-12-01T11:15:19.323Z,1172
2016-12-01T11:16:19.644Z,1220
2016-12-01T11:17:19.661Z,1288
2016-12-01T11:18:19.701Z,1248
2016-12-01T11:19:19.718Z,1208
2016-12-01T11:20:19.129Z,1232
2016-12-01T11:21:19.150Z,1216
2016-12-01T11:22:19.497Z,1296
2016-12-01T11:23:19.521Z,1372
2016-12-01T11:24:19.241Z,1352
2016-12-01T11:25:19.562Z,1340
2016-12-01T11:26:19.599Z,1276
2016-12-01T11:27:19.619Z,1232
2016-12-01T11:28:19.648Z,1228
2016-12-01T11:29:19.370Z,1316
2016-12-01T11:30:20.020Z,1296
2016-12-01T11:31:19.730Z,1164
2016-12-01T11:32:19.759Z,1060
2016-12-01T11:33:19.473Z,1052
2016-12-01T11:34:20.100Z,1096
2016-12-01T11:35:20.438Z,1032
2016-12-01T11:36:19.886Z,1124
2016-12-01T11:37:19.586Z,1080
2016-12-01T11:38:20.505Z,1056
2016-12-01T11:39:19.939Z,1036
2016-12-01T11:40:19.956Z,1084
2016-12-01T11:41:19.684Z,1064
2016-12-01T11:42:20.310Z,1076
2016-12-01T11:43:20.336Z,1000
2016-12-01T11:44:20.669Z,1036
2016-12-01T11:45:20.093Z,1080
2016-12-01T11:46:20.426Z,1144
2016-12-01T11:47:19.838Z,1112
2016-12-01T11:48:20.202Z,1120
2016-12-01T11:49:19.892Z,1092
2016-12-01T11:50:20.248Z,1136
2016-12-01T11:51:20.253Z,1104
2016-12-01T11:52:20.581Z,1080
2016-12-01T11:53:20.287Z,1064
2016-12-01T11:54:20.323Z,1100
2016-12-01T11:55:20.356Z,1092
2016-12-01T11:56:20.700Z,1112
2016-12-01T11:57:20.406Z,1128
2016-12-01T11:58:20.446Z,1200
2016-12-01T11:59:20.450Z,1160
2016-12-01T12:00:21.088Z,1084
2016-12-01T12:01:20.508Z,1064
2016-12-01T12:02:20.540Z,1060
2016-12-01T12:03:20.568Z,1100
2016-12-01T12:04:20.890Z,1060
2016-12-01T12:05:20.311Z,1176
2016-12-01T12:06:21.247Z,1068
2016-12-01T12:07:20.967Z,1084
2016-12-01T12:08:20.397Z,1092
2016-12-01T12:09:21.034Z,1196
2016-12-01T12:10:21.055Z,1108
2016-12-01T12:11:20.779Z,1132
2016-12-01T12:12:20.488Z,1192
2016-12-01T12:13:20.512Z,1132
2016-12-01T12:14:20.841Z,1096
2016-12-01T12:15:20.879Z,1168
2016-12-01T12:16:20.607Z,1040
2016-12-01T12:17:21.536Z,1028
2016-12-01T12:18:20.988Z,1056
2016-12-01T12:19:20.989Z,1064
2016-12-01T12:20:20.697Z,1124
2016-12-01T12:21:21.039Z,1140
2016-12-01T12:22:20.772Z,1260
2016-12-01T12:23:21.092Z,1204
2016-12-01T12:24:21.122Z,1272
2016-12-01T12:25:21.150Z,1232
2016-12-01T12:26:21.461Z,1340
2016-12-01T12:27:21.498Z,1204
2016-12-01T12:28:21.521Z,1212
2016-12-01T12:29:20.946Z,1204
2016-12-01T12:30:21.875Z,1148
2016-12-01T12:31:20.990Z,1056
2016-12-01T12:32:21.618Z,1004
2016-12-01T12:33:21.654Z,1080
2016-12-01T12:34:21.375Z,1156
2016-12-01T12:35:21.393Z,1052
2016-12-01T12:36:21.737Z,1024
2016-12-01T12:37:21.150Z,1064
2016-12-01T12:38:21.790Z,1112
2016-12-01T12:39:21.807Z,1056
2016-12-01T12:40:21.825Z,1052
2016-12-01T12:41:21.856Z,1196
2016-12-01T12:42:22.201Z,1376
2016-12-01T12:43:21.306Z,1316
2016-12-01T12:44:21.931Z,1348
2016-12-01T12:45:21.977Z,1472
2016-12-01T12:46:21.691Z,1596
2016-12-01T12:47:21.705Z,1744
2016-12-01T12:48:21.737Z,1440
2016-12-01T12:49:22.105Z,1184
2016-12-01T12:50:22.093Z,1188
2016-12-01T12:51:22.129Z,1336
2016-12-01T12:52:22.682Z,1308
2016-12-01T12:53:22.161Z,1128
2016-12-01T12:54:21.897Z,1048
2016-12-01T12:55:22.225Z,1016
2016-12-01T12:56:22.263Z,884
2016-12-01T12:57:22.279Z,868
2016-12-01T12:58:22.298Z,780
2016-12-01T12:59:22.037Z,692
2016-12-01T13:00:22.669Z,704
2016-12-01T13:01:22.615Z,720
2016-12-01T13:02:22.946Z,688
2016-12-01T13:03:22.435Z,744
2016-12-01T13:04:21.853Z,804
2016-12-01T13:05:22.188Z,756
2016-12-01T13:06:21.913Z,800
2016-12-01T13:07:22.245Z,800
2016-12-01T13:08:22.266Z,760
2016-12-01T13:09:22.288Z,700
2016-12-01T13:10:22.016Z,736
2016-12-01T13:11:22.641Z,760
2016-12-01T13:12:22.061Z,756
2016-12-01T13:13:22.402Z,736
2016-12-01T13:14:22.723Z,692
2016-12-01T13:15:22.743Z,868
2016-12-01T13:16:22.472Z,768
2016-12-01T13:17:22.504Z,716
2016-12-01T13:18:22.525Z,708
2016-12-01T13:19:22.245Z,732
2016-12-01T13:20:22.274Z,776
2016-12-01T13:21:23.208Z,796
2016-12-01T13:22:22.936Z,820
2016-12-01T13:23:22.656Z,756
2016-12-01T13:24:22.694Z,728
2016-12-01T13:25:23.306Z,760
2016-12-01T13:26:22.720Z,740
2016-12-01T13:27:22.451Z,720
2016-12-01T13:28:22.788Z,692
2016-12-01T13:29:23.129Z,648
2016-12-01T13:30:23.448Z,648
2016-12-01T13:31:22.554Z,676
2016-12-01T13:32:22.587Z,688
2016-12-01T13:33:22.923Z,624
2016-12-01T13:34:23.248Z,588
2016-12-01T13:35:23.277Z,576
2016-12-01T13:36:23.299Z,620
2016-12-01T13:37:23.332Z,596
2016-12-01T13:38:23.051Z,620
2016-12-01T13:39:22.768Z,640
2016-12-01T13:40:23.709Z,552
2016-12-01T13:41:23.425Z,552
2016-12-01T13:42:23.150Z,516
2016-12-01T13:43:23.490Z,520
2016-12-01T13:44:23.195Z,488
2016-12-01T13:45:23.231Z,492
2016-12-01T13:46:22.951Z,460
2016-12-01T13:47:23.914Z,468
2016-12-01T13:48:23.039Z,452
2016-12-01T13:49:23.648Z,440
2016-12-01T13:50:23.955Z,516
2016-12-01T13:51:23.680Z,584
2016-12-01T13:52:23.410Z,540
2016-12-01T13:53:23.445Z,576
2016-12-01T13:54:23.775Z,528
2016-12-01T13:55:23.801Z,508
2016-12-01T13:56:23.511Z,464
2016-12-01T13:57:23.548Z,424
2016-12-01T13:58:23.276Z,456
2016-12-01T13:59:23.917Z,468
2016-12-01T14:00:23.341Z,460
2016-12-01T14:01:24.259Z,464
2016-12-01T14:02:23.979Z,400
2016-12-01T14:03:23.387Z,392
2016-12-01T14:04:23.720Z,380
2016-12-01T14:05:23.454Z,392